Time;durP1;ratioP1;P1;durP2;ratioP2;P2;SDS_P1;SDS_P2;PMS_P1;PMS_P2;Temp;Humidity;BMP_temperature;BMP_pressure;BME280_temperature;BME280_humidity;BME280_pressure;Samples;Min_cycle;Max_cycle;Signal;HPM_P1;HPM_P2
2022/03/18 00:00:59;;;;;;;;;4.40;3.20;;;;;3.58;71.72;102049.25;5075104;28;8859;-64
2022/03/18 00:03:28;;;;;;;;;3.40;3.40;;;;;3.57;71.72;102042.25;5075014;28;8832;-64
2022/03/18 00:05:55;;;;;;;;;5.20;5.20;;;;;3.57;71.57;102047.53;5075344;28;8843;-64
2022/03/18 00:08:23;;;;;;;;;7.40;7.00;;;;;3.56;71.87;102049.28;5075522;28;8858;-64
2022/03/18 00:10:51;;;;;;;;;4.00;4.00;;;;;3.56;71.71;102056.34;5077530;28;8832;-64
2022/03/18 00:13:19;;;;;;;;;3.00;3.00;;;;;3.53;71.56;102059.88;5079120;28;8836;-64
2022/03/18 00:15:46;;;;;;;;;4.40;4.40;;;;;3.51;71.48;102058.16;5079050;28;8850;-64
2022/03/18 00:18:14;;;;;;;;;6.60;6.60;;;;;3.47;71.63;102051.22;5079042;28;10013;-64
2022/03/18 00:20:43;;;;;;;;;3.20;3.00;;;;;3.42;72.27;102043.38;5078821;28;9018;-64
2022/03/18 00:23:11;;;;;;;;;4.40;3.80;;;;;3.39;72.47;102059.25;5078917;28;8836;-64
2022/03/18 00:25:39;;;;;;;;;5.20;4.00;;;;;3.34;72.33;102066.34;5079215;28;8853;-65
2022/03/18 00:28:06;;;;;;;;;4.80;4.00;;;;;3.29;72.08;102062.03;5077783;28;8970;-64
2022/03/18 00:30:34;;;;;;;;;6.20;4.80;;;;;3.26;72.55;102055.06;5076305;28;9551;-64
2022/03/18 00:33:03;;;;;;;;;3.40;3.40;;;;;3.23;72.17;102054.25;5076768;28;8843;-64
2022/03/18 00:35:36;;;;;;;;;0.40;0.40;;;;;3.22;72.51;102055.13;5076764;28;8836;-65
2022/03/18 00:38:03;;;;;;;;;4.00;4.00;;;;;3.19;71.74;102057.84;5076330;28;8843;-64
2022/03/18 00:40:31;;;;;;;;;5.80;4.80;;;;;3.17;72.31;102057.00;5076192;28;8843;-64
2022/03/18 00:43:00;;;;;;;;;3.20;3.20;;;;;3.15;72.85;102064.03;5076791;28;8836;-64
2022/03/18 00:45:29;;;;;;;;;3.60;3.40;;;;;3.14;72.24;102071.06;5078889;28;8832;-64
2022/03/18 00:53:28;;;;;;;;;3.80;3.80;;;;;3.12;72.36;102070.22;5078284;28;8828;-65
2022/03/18 00:55:55;;;;;;;;;4.60;4.60;;;;;3.10;72.58;102072.00;5076515;28;8844;-64
2022/03/18 00:58:23;;;;;;;;;5.40;5.40;;;;;3.09;72.50;102066.78;5078281;28;8852;-65
2022/03/18 01:00:51;;;;;;;;;4.40;4.00;;;;;3.08;72.56;102071.16;5078513;28;8828;-64
2022/03/18 01:03:20;;;;;;;;;4.00;4.00;;;;;3.05;72.53;102065.94;5078285;28;8836;-64
2022/03/18 01:05:48;;;;;;;;;4.80;3.80;;;;;3.04;72.96;102063.34;5078605;28;8816;-64
2022/03/18 01:08:16;;;;;;;;;0.60;0.00;;;;;3.02;72.67;102068.59;5078249;28;8832;-64
2022/03/18 01:10:44;;;;;;;;;5.60;4.40;;;;;3.00;73.00;102070.41;5078134;28;8836;-65
2022/03/18 01:13:11;;;;;;;;;5.20;5.20;;;;;2.97;72.15;102073.09;5078425;28;8840;-64
2022/03/18 01:15:39;;;;;;;;;3.20;3.00;;;;;2.93;71.92;102067.88;5078347;28;8836;-64
2022/03/18 01:18:07;;;;;;;;;4.40;4.40;;;;;2.90;72.40;102079.34;5078296;28;8820;-63
2022/03/18 01:20:35;;;;;;;;;6.20;4.40;;;;;2.88;72.59;102078.47;5077023;28;8847;-63
2022/03/18 01:23:03;;;;;;;;;5.20;4.80;;;;;2.85;73.20;102080.25;5078146;28;8862;-65
2022/03/18 01:25:31;;;;;;;;;3.00;3.00;;;;;2.82;73.31;102075.94;5078156;28;8878;-64
2022/03/18 01:28:01;;;;;;;;;5.80;5.00;;;;;2.79;72.71;102075.13;5078148;28;8828;-63
2022/03/18 01:30:30;;;;;;;;;1.00;1.00;;;;;2.78;73.00;102079.50;5076204;28;8917;-64
2022/03/18 01:33:00;;;;;;;;;8.60;6.80;;;;;2.78;73.20;102089.13;5075956;28;8852;-64
2022/03/18 01:35:28;;;;;;;;;2.60;1.40;;;;;2.75;72.72;102082.19;5077475;28;8832;-64
2022/03/18 01:37:55;;;;;;;;;4.00;4.00;;;;;2.76;72.51;102088.28;5077738;28;8890;-64
2022/03/18 01:40:23;;;;;;;;;5.20;4.00;;;;;2.74;73.23;102076.94;5077345;28;8966;-64
2022/03/18 01:42:51;;;;;;;;;6.60;6.60;;;;;2.72;73.24;102087.47;5077641;28;8854;-64
2022/03/18 01:45:18;;;;;;;;;7.00;7.00;;;;;2.71;72.98;102085.72;5077980;28;8972;-65
2022/03/18 01:47:47;;;;;;;;;6.20;6.00;;;;;2.69;72.87;102090.13;5077893;28;8961;-64
2022/03/18 01:50:15;;;;;;;;;6.00;5.20;;;;;2.65;72.94;102090.22;5077240;28;8839;-64
2022/03/18 01:52:43;;;;;;;;;8.60;8.20;;;;;2.61;73.34;102099.88;5076225;28;8856;-63
2022/03/18 01:55:15;;;;;;;;;6.00;5.60;;;;;2.57;72.68;102099.94;5075097;28;8852;-64
2022/03/18 01:57:43;;;;;;;;;3.00;3.00;;;;;2.53;73.21;102107.00;5075322;28;8962;-64
2022/03/18 02:00:11;;;;;;;;;7.80;5.20;;;;;2.53;73.00;102101.75;5075416;28;8852;-64
2022/03/18 02:02:39;;;;;;;;;2.80;2.80;;;;;2.51;72.84;102106.13;5076990;28;8859;-63
2022/03/18 02:05:07;;;;;;;;;6.00;4.40;;;;;2.50;73.28;102117.53;5076979;28;8851;-63
2022/03/18 02:07:35;;;;;;;;;6.40;6.40;;;;;2.50;73.43;102108.81;5076859;28;8846;-63
2022/03/18 02:10:02;;;;;;;;;6.40;6.40;;;;;2.50;73.49;102121.94;5077307;28;8828;-63
2022/03/18 02:12:31;;;;;;;;;6.00;6.00;;;;;2.49;73.06;102122.84;5076863;28;8861;-63
2022/03/18 02:14:59;;;;;;;;;9.00;8.00;;;;;2.48;72.90;102127.22;5077106;28;8852;-64
2022/03/18 02:17:26;;;;;;;;;6.60;6.00;;;;;2.50;72.92;102124.56;5076814;28;8820;-63
2022/03/18 02:19:54;;;;;;;;;4.00;4.00;;;;;2.50;72.96;102129.84;5076418;28;8835;-64
2022/03/18 02:22:22;;;;;;;;;5.20;3.80;;;;;2.47;72.76;102135.09;5105341;28;9531;-63
2022/03/18 02:24:49;;;;;;;;;6.00;6.00;;;;;2.46;73.29;102136.88;5076484;28;8961;-63
2022/03/18 02:27:17;;;;;;;;;6.60;6.60;;;;;2.44;73.45;102141.25;5076876;28;8955;-63
2022/03/18 02:29:45;;;;;;;;;6.80;6.00;;;;;2.42;73.21;102137.78;5076409;28;8826;-63
2022/03/18 02:32:14;;;;;;;;;4.00;3.60;;;;;2.40;72.73;102144.84;5075883;28;8840;-63
2022/03/18 02:34:42;;;;;;;;;5.60;5.60;;;;;2.38;73.53;102149.25;5075410;28;8830;-63
2022/03/18 02:37:09;;;;;;;;;7.80;6.00;;;;;2.34;72.68;102147.53;5076045;28;8822;-63
2022/03/18 02:39:37;;;;;;;;;5.20;4.80;;;;;2.31;73.45;102144.06;5076499;28;9523;-63
2022/03/18 02:42:05;;;;;;;;;3.40;3.40;;;;;2.29;73.42;102145.84;5075997;28;8854;-63
2022/03/18 02:44:33;;;;;;;;;7.00;6.00;;;;;2.26;73.35;102149.38;5076497;28;8849;-63
2022/03/18 02:47:01;;;;;;;;;5.00;4.40;;;;;2.24;73.15;102159.03;5076629;28;8852;-62
2022/03/18 02:49:28;;;;;;;;;7.00;7.00;;;;;2.20;73.66;102164.34;5076100;28;8847;-62
2022/03/18 02:51:57;;;;;;;;;5.20;5.20;;;;;2.16;73.61;102171.38;5076427;28;8835;-63
2022/03/18 02:54:24;;;;;;;;;4.40;4.40;;;;;2.12;73.72;102171.44;5076025;28;8827;-63
2022/03/18 02:56:52;;;;;;;;;7.00;7.00;;;;;2.11;73.78;102173.16;5076312;28;8843;-63
2022/03/18 02:59:20;;;;;;;;;6.80;6.20;;;;;2.11;73.73;102182.81;5076665;28;8838;-63
2022/03/18 03:01:48;;;;;;;;;7.80;6.40;;;;;2.11;73.71;102188.09;5075973;28;8831;-64
2022/03/18 03:04:17;;;;;;;;;2.60;2.60;;;;;2.10;73.55;102187.19;5075916;28;8949;-63
2022/03/18 03:09:30;;;;;;;;;5.60;3.60;;;;;2.09;73.92;102189.81;5076155;28;8961;-63
2022/03/18 03:11:58;;;;;;;;;8.00;7.00;;;;;2.08;73.41;102198.59;5076392;28;8819;-63
2022/03/18 03:14:26;;;;;;;;;5.20;5.20;;;;;2.05;73.53;102199.50;5075918;28;8858;-63
2022/03/18 03:16:54;;;;;;;;;4.80;4.80;;;;;2.04;73.42;102203.00;5075754;28;8830;-63
2022/03/18 03:19:21;;;;;;;;;1.40;1.00;;;;;2.00;73.69;102209.19;5075882;28;8841;-63
2022/03/18 03:21:49;;;;;;;;;6.00;6.00;;;;;1.95;73.52;102216.22;5075267;28;8839;-63
2022/03/18 03:24:16;;;;;;;;;6.80;5.80;;;;;1.89;73.97;102218.91;5075942;28;8824;-63
2022/03/18 03:26:44;;;;;;;;;2.20;1.80;;;;;1.85;73.55;102221.56;5076107;28;8943;-62
2022/03/18 03:29:12;;;;;;;;;8.60;6.60;;;;;1.83;73.40;102218.09;5075994;28;8843;-63
2022/03/18 03:31:39;;;;;;;;;4.80;4.80;;;;;1.80;73.92;102221.59;5076156;28;8821;-62
2022/03/18 03:34:08;;;;;;;;;6.40;6.20;;;;;1.79;74.00;102238.25;5075693;28;8889;-62
2022/03/18 03:36:35;;;;;;;;;6.20;5.60;;;;;1.76;73.66;102238.25;5075380;28;8848;-63
2022/03/18 03:39:03;;;;;;;;;4.00;4.00;;;;;1.73;73.51;102233.03;5075783;28;8836;-63
2022/03/18 03:41:30;;;;;;;;;4.80;4.00;;;;;1.69;74.23;102236.59;5075418;28;8862;-66
2022/03/18 03:43:58;;;;;;;;;5.80;5.80;;;;;1.64;74.14;102243.59;5076443;28;8858;-63
2022/03/18 03:46:26;;;;;;;;;7.80;7.80;;;;;1.58;74.22;102238.38;5080162;28;8838;-63
2022/03/18 03:48:54;;;;;;;;;4.80;4.00;;;;;1.53;74.30;102231.44;5079550;28;8864;-63
2022/03/18 03:51:22;;;;;;;;;4.40;3.20;;;;;1.48;74.07;102235.81;5080048;28;8847;-63
2022/03/18 03:53:50;;;;;;;;;6.00;6.00;;;;;1.44;74.72;102247.25;5079855;28;9526;-63
2022/03/18 03:56:17;;;;;;;;;4.40;4.40;;;;;1.42;74.38;102241.09;5079706;28;8994;-63
2022/03/18 03:58:45;;;;;;;;;9.00;8.60;;;;;1.39;74.34;102236.78;5079620;28;8856;-62
2022/03/18 04:01:13;;;;;;;;;6.40;4.60;;;;;1.39;74.50;102241.13;5078178;28;8830;-62
2022/03/18 04:03:41;;;;;;;;;6.40;6.20;;;;;1.34;74.35;102246.41;5078843;28;8832;-63
2022/03/18 04:06:08;;;;;;;;;4.80;4.00;;;;;1.33;74.45;102244.66;5079447;28;8828;-63
2022/03/18 04:08:37;;;;;;;;;4.00;4.00;;;;;1.35;74.07;102242.91;5079826;28;8836;-63
2022/03/18 04:11:04;;;;;;;;;6.80;6.00;;;;;1.37;74.11;102254.25;5079119;28;8836;-62
2022/03/18 04:13:32;;;;;;;;;2.20;0.80;;;;;1.38;74.11;102245.50;5079351;28;8874;-63
2022/03/18 04:16:00;;;;;;;;;6.80;6.60;;;;;1.39;74.69;102243.75;5079056;28;8836;-62
2022/03/18 04:18:28;;;;;;;;;6.20;5.40;;;;;1.41;74.60;102245.50;5096657;28;8838;-63
2022/03/18 04:20:56;;;;;;;;;6.20;6.00;;;;;1.43;74.41;102241.09;5117266;28;8846;-62
2022/03/18 04:23:23;;;;;;;;;5.60;3.00;;;;;1.41;74.30;102240.25;5119615;28;8840;-63
2022/03/18 04:25:51;;;;;;;;;7.00;6.20;;;;;1.39;74.45;102231.53;5120292;28;8856;-63
2022/03/18 04:28:19;;;;;;;;;3.00;3.00;;;;;1.30;74.69;102236.78;5106675;28;8852;-62
2022/03/18 04:30:46;;;;;;;;;2.20;2.20;;;;;1.23;74.71;102248.19;5099083;28;8826;-63
2022/03/18 04:33:14;;;;;;;;;5.80;5.60;;;;;1.25;74.40;102258.69;5099149;28;8833;-63
2022/03/18 04:35:42;;;;;;;;;9.00;6.60;;;;;1.26;74.91;102260.44;5099066;28;8867;-63
2022/03/18 04:38:09;;;;;;;;;6.00;4.00;;;;;1.28;74.95;102256.09;5109698;28;8812;-62
2022/03/18 04:40:37;;;;;;;;;5.80;4.00;;;;;1.27;75.08;102256.94;5119761;28;8835;-62
2022/03/18 04:43:05;;;;;;;;;4.40;4.40;;;;;1.27;74.98;102249.94;5119228;28;8832;-63
2022/03/18 04:45:33;;;;;;;;;4.40;3.60;;;;;1.30;74.21;102256.94;5119106;28;8921;-63
2022/03/18 04:48:01;;;;;;;;;5.60;5.60;;;;;1.32;74.80;102258.69;5109276;28;8806;-64
2022/03/18 04:50:28;;;;;;;;;6.60;6.00;;;;;1.33;74.48;102256.91;5098965;28;8822;-62
2022/03/18 04:52:57;;;;;;;;;3.00;3.00;;;;;1.31;75.06;102256.91;5098549;28;8942;-63
2022/03/18 04:55:24;;;;;;;;;6.00;6.00;;;;;1.29;74.64;102266.53;5098247;28;9011;-63
2022/03/18 04:57:52;;;;;;;;;3.40;3.40;;;;;1.27;74.63;102263.06;5106311;28;8828;-63
2022/03/18 05:00:24;;;;;;;;;6.80;6.00;;;;;1.24;74.45;102270.97;5119194;28;8836;-62
2022/03/18 05:02:52;;;;;;;;;4.00;4.00;;;;;1.19;74.76;102267.47;5118956;28;8828;-64
2022/03/18 05:05:20;;;;;;;;;7.00;7.00;;;;;1.14;74.82;102261.38;5118492;28;8840;-62
2022/03/18 05:07:52;;;;;;;;;3.40;3.40;;;;;1.12;75.14;102268.38;5098362;28;8818;-62
2022/03/18 05:10:20;;;;;;;;;4.40;4.40;;;;;1.10;74.53;102270.16;5098445;28;9541;-62
2022/03/18 05:12:48;;;;;;;;;4.80;4.00;;;;;1.08;74.33;102286.75;5098362;28;8907;-63
2022/03/18 05:15:16;;;;;;;;;9.00;5.60;;;;;1.04;74.66;102288.53;5098228;28;8956;-64
2022/03/18 05:17:44;;;;;;;;;5.60;5.60;;;;;1.00;74.92;102285.91;5118160;28;8828;-63
2022/03/18 05:20:12;;;;;;;;;6.20;6.00;;;;;0.96;74.69;102287.69;5118701;28;8842;-62
2022/03/18 05:22:40;;;;;;;;;4.00;3.40;;;;;0.90;74.92;102295.56;5118299;28;8828;-64
2022/03/18 05:25:07;;;;;;;;;5.20;5.20;;;;;0.87;75.83;102302.56;5101705;28;8842;-63
2022/03/18 05:27:35;;;;;;;;;5.60;4.00;;;;;0.85;75.25;102305.16;5109487;28;8905;-63
2022/03/18 05:30:03;;;;;;;;;6.60;6.20;;;;;0.83;75.27;102300.84;5118248;28;8846;-62
2022/03/18 05:32:30;;;;;;;;;6.00;6.00;;;;;0.82;75.60;102305.19;5117733;28;8824;-62
2022/03/18 05:35:00;;;;;;;;;4.00;4.00;;;;;0.83;75.29;102306.94;5117941;28;8982;-62
2022/03/18 05:37:28;;;;;;;;;6.20;4.40;;;;;0.86;74.90;102311.31;5108169;28;8826;-63
2022/03/18 05:39:56;;;;;;;;;6.20;6.00;;;;;0.88;75.63;102317.41;5096802;28;8836;-63
2022/03/18 05:42:24;;;;;;;;;5.60;4.40;;;;;0.89;75.10;102327.91;5097336;28;8867;-62
2022/03/18 05:44:51;;;;;;;;;6.60;6.60;;;;;0.88;74.90;102331.41;5097162;28;8856;-62
2022/03/18 05:47:19;;;;;;;;;6.80;6.00;;;;;0.87;74.74;102340.16;5105275;28;8838;-63
2022/03/18 05:49:48;;;;;;;;;5.20;5.20;;;;;0.86;75.07;102340.16;5113271;28;9543;-62
2022/03/18 05:52:16;;;;;;;;;3.60;3.20;;;;;0.85;74.72;102347.13;5096755;28;8852;-66
2022/03/18 05:54:43;;;;;;;;;6.80;6.80;;;;;0.86;74.86;102354.09;5096139;28;8860;-63
2022/03/18 05:57:12;;;;;;;;;7.00;6.80;;;;;0.86;74.65;102363.75;5096986;28;8846;-63
2022/03/18 05:59:39;;;;;;;;;6.00;4.40;;;;;0.88;74.74;102375.97;5098989;28;8848;-62
2022/03/18 06:02:07;;;;;;;;;8.60;8.60;;;;;0.88;74.77;102378.59;5116856;28;8828;-63
2022/03/18 06:04:36;;;;;;;;;6.20;6.20;;;;;0.88;74.83;102373.34;5117070;28;8928;-62
2022/03/18 06:07:03;;;;;;;;;6.00;6.00;;;;;0.85;75.25;102377.72;5114660;28;8892;-62
2022/03/18 06:12:17;;;;;;;;;5.20;5.20;;;;;0.83;74.83;102382.97;5116940;28;8839;-62
2022/03/18 06:14:44;;;;;;;;;4.80;4.80;;;;;0.83;75.09;102380.34;5115541;28;8831;-63
2022/03/18 06:17:12;;;;;;;;;3.00;3.00;;;;;0.84;74.38;102378.63;5116401;28;8815;-63
2022/03/18 06:19:40;;;;;;;;;6.20;6.20;;;;;0.87;74.83;102384.72;5115742;28;8827;-64
2022/03/18 06:22:08;;;;;;;;;3.00;3.00;;;;;0.89;74.71;102390.84;5115389;28;8840;-62
2022/03/18 06:24:36;;;;;;;;;3.40;3.40;;;;;0.88;74.73;102399.59;5115997;28;8879;-62
2022/03/18 06:27:03;;;;;;;;;3.00;3.00;;;;;0.90;74.94;102399.56;5115695;28;8832;-63
2022/03/18 06:29:31;;;;;;;;;6.40;6.00;;;;;0.90;75.17;102405.69;5115293;28;8828;-64
2022/03/18 06:31:59;;;;;;;;;6.80;6.60;;;;;0.91;74.65;102414.44;5115600;28;8836;-62
2022/03/18 06:34:26;;;;;;;;;3.00;3.00;;;;;0.94;74.65;102410.06;5115416;28;8840;-63
2022/03/18 06:36:54;;;;;;;;;8.80;7.00;;;;;1.00;74.20;102412.66;5115131;28;8862;-63
2022/03/18 06:39:22;;;;;;;;;8.60;6.80;;;;;1.08;74.68;102410.91;5114906;28;8820;-62
2022/03/18 06:41:50;;;;;;;;;8.60;8.20;;;;;1.18;73.69;102410.03;5114116;28;8823;-63
2022/03/18 06:44:18;;;;;;;;;7.80;6.60;;;;;1.29;73.97;102412.63;5114649;28;9683;-62
2022/03/18 06:46:46;;;;;;;;;8.60;8.20;;;;;1.41;73.82;102420.44;5115137;28;9527;-63
2022/03/18 06:49:14;;;;;;;;;6.40;6.40;;;;;1.55;73.29;102416.94;5114625;28;8824;-62
2022/03/18 06:51:41;;;;;;;;;11.40;9.80;;;;;1.69;73.35;102419.50;5114173;28;9529;-63
2022/03/18 06:54:12;;;;;;;;;6.20;6.20;;;;;1.79;72.58;102419.44;5113950;28;8941;-63
2022/03/18 06:56:40;;;;;;;;;10.20;7.60;;;;;1.88;73.11;102427.28;5113689;28;8862;-63
2022/03/18 06:59:07;;;;;;;;;10.60;9.00;;;;;2.01;72.69;102430.72;5113021;28;8858;-63
2022/03/18 07:01:36;;;;;;;;;6.20;4.80;;;;;2.12;72.46;102436.81;5113670;28;8836;-62
2022/03/18 07:04:04;;;;;;;;;9.80;9.80;;;;;2.20;72.41;102435.84;5113854;28;8820;-63
2022/03/18 07:06:32;;;;;;;;;8.60;7.20;;;;;2.25;72.21;102431.47;5111590;28;8978;-62
2022/03/18 07:09:00;;;;;;;;;10.40;9.20;;;;;2.31;71.72;102438.44;5112329;28;8851;-63
2022/03/18 07:11:28;;;;;;;;;9.20;8.80;;;;;2.37;72.37;102438.38;5112031;28;8839;-62
2022/03/18 07:13:56;;;;;;;;;9.40;8.60;;;;;2.44;71.90;102430.44;5112850;28;8864;-63
2022/03/18 07:19:09;;;;;;;;;12.60;10.40;;;;;2.66;71.37;102434.66;5111307;28;8820;-62
2022/03/18 07:21:37;;;;;;;;;11.20;11.20;;;;;2.76;71.78;102433.72;5111447;28;8828;-63
2022/03/18 07:24:05;;;;;;;;;11.20;9.40;;;;;2.88;71.64;102445.91;5112704;28;8839;-63
2022/03/18 07:26:33;;;;;;;;;13.40;12.20;;;;;3.01;71.09;102451.03;5112276;28;9529;-62
2022/03/18 07:29:04;;;;;;;;;18.20;14.80;;;;;3.22;70.90;102442.06;5111869;28;9221;-63
2022/03/18 07:31:32;;;;;;;;;12.20;12.20;;;;;3.45;70.49;102450.59;5110697;28;8839;-63
2022/03/18 07:34:00;;;;;;;;;12.60;11.60;;;;;3.66;69.82;102446.00;5111372;28;8979;-63
2022/03/18 07:36:27;;;;;;;;;9.00;9.00;;;;;3.83;70.22;102446.66;5112162;28;8954;-63
2022/03/18 07:38:55;;;;;;;;;16.80;15.00;;;;;3.99;69.94;102432.41;5112020;28;8844;-64
2022/03/18 07:41:23;;;;;;;;;15.40;14.60;;;;;4.21;69.20;102439.13;5111938;28;8832;-63
2022/03/18 07:43:51;;;;;;;;;10.60;8.60;;;;;4.45;68.95;102439.66;5112042;28;8839;-63
2022/03/18 07:46:18;;;;;;;;;9.20;7.80;;;;;4.73;68.82;102434.81;5112881;28;8840;-63
2022/03/18 07:48:46;;;;;;;;;13.40;12.80;;;;;5.00;68.44;102424.69;5111136;28;8916;-63
2022/03/18 07:51:14;;;;;;;;;12.60;10.40;;;;;5.30;68.10;102423.25;5111448;28;8828;-64
2022/03/18 07:53:42;;;;;;;;;12.00;10.40;;;;;5.54;67.96;102423.66;5111797;28;8816;-63
2022/03/18 07:56:09;;;;;;;;;12.20;10.00;;;;;5.77;67.31;102423.22;5111351;28;8852;-64
2022/03/18 07:58:37;;;;;;;;;16.00;14.60;;;;;5.99;66.75;102419.25;5112683;28;8835;-63
2022/03/18 08:01:06;;;;;;;;;16.60;14.60;;;;;6.19;66.89;102414.41;5113482;28;8847;-63
2022/03/18 08:03:34;;;;;;;;;14.20;13.40;;;;;6.42;66.21;102410.34;5112814;28;8831;-63
2022/03/18 08:06:02;;;;;;;;;19.00;15.20;;;;;6.62;66.07;102413.38;5111354;28;9598;-64
2022/03/18 08:08:30;;;;;;;;;12.80;12.00;;;;;6.80;65.68;102406.75;5112789;28;8862;-64
2022/03/18 08:10:58;;;;;;;;;18.20;18.20;;;;;6.96;65.73;102405.50;5112418;28;8848;-64
2022/03/18 08:13:26;;;;;;;;;16.80;16.40;;;;;7.07;65.54;102404.31;5113085;28;9211;-63
2022/03/18 08:15:54;;;;;;;;;15.40;15.40;;;;;7.20;65.66;102416.28;5112812;28;8858;-63
2022/03/18 08:18:22;;;;;;;;;9.40;9.40;;;;;7.38;65.54;102409.63;5113450;28;8827;-63
2022/03/18 08:20:49;;;;;;;;;12.60;11.60;;;;;7.58;65.63;102423.22;5112813;28;8835;-63
2022/03/18 08:23:17;;;;;;;;;12.40;11.60;;;;;7.77;65.17;102418.22;5111380;28;8863;-63
2022/03/18 08:25:45;;;;;;;;;12.80;9.20;;;;;7.98;64.72;102433.50;5111108;28;9209;-63
2022/03/18 08:28:12;;;;;;;;;15.20;15.20;;;;;8.26;64.55;102415.91;5112041;28;8843;-63
2022/03/18 08:30:40;;;;;;;;;17.60;16.80;;;;;8.53;64.21;102419.47;5112480;28;8855;-63
2022/03/18 08:33:08;;;;;;;;;16.00;14.20;;;;;8.73;63.98;102412.59;5114346;28;8858;-63
2022/03/18 08:35:36;;;;;;;;;15.40;13.20;;;;;8.96;62.85;102417.16;5111886;28;8844;-63
2022/03/18 08:38:07;;;;;;;;;13.40;12.40;;;;;9.17;62.81;102429.72;5112809;28;9567;-63
2022/03/18 08:40:35;;;;;;;;;14.00;11.60;;;;;9.35;62.64;102429.09;5114868;28;9574;-64
2022/03/18 08:43:02;;;;;;;;;12.60;10.40;;;;;9.49;62.60;102425.00;5115549;28;8866;-63
2022/03/18 08:45:31;;;;;;;;;13.40;12.00;;;;;9.62;62.04;102434.31;5115951;28;8831;-63
2022/03/18 08:47:58;;;;;;;;;13.40;11.60;;;;;9.88;62.01;102428.03;5116276;28;8836;-63
2022/03/18 08:50:26;;;;;;;;;9.00;9.00;;;;;10.28;61.69;102426.50;5115419;28;8850;-63
2022/03/18 08:52:55;;;;;;;;;10.00;9.75;;;;;10.72;61.33;102441.59;5114127;28;8849;-63
2022/03/18 08:55:22;;;;;;;;;14.50;13.00;;;;;11.12;60.66;102432.81;5115466;28;8868;-63
2022/03/18 08:57:50;;;;;;;;;10.75;9.00;;;;;11.58;60.17;102441.47;5115905;28;8950;-63
2022/03/18 09:00:18;;;;;;;;;10.00;9.50;;;;;11.88;59.66;102437.44;5112751;28;8874;-63
2022/03/18 09:02:46;;;;;;;;;9.00;7.00;;;;;12.08;59.20;102445.44;5114494;28;8888;-63
2022/03/18 09:05:13;;;;;;;;;9.00;7.00;;;;;12.28;59.19;102446.25;5113566;28;8855;-63
2022/03/18 09:07:41;;;;;;;;;8.00;7.00;;;;;12.41;59.18;102447.41;5114888;28;8878;-63
2022/03/18 09:10:09;;;;;;;;;9.50;8.00;;;;;12.56;59.22;102448.47;5114907;28;8935;-63
2022/03/18 09:12:37;;;;;;;;;5.00;5.00;;;;;12.67;59.17;102452.38;5113616;28;9210;-63
2022/03/18 09:15:05;;;;;;;;;3.50;3.50;;;;;12.81;58.84;102460.59;5114493;28;8827;-63
2022/03/18 09:17:33;;;;;;;;;6.00;5.50;;;;;13.05;59.01;102459.41;5115890;28;8847;-63
2022/03/18 09:20:00;;;;;;;;;5.50;5.50;;;;;13.35;57.97;102465.91;5113697;28;8832;-63
2022/03/18 09:22:28;;;;;;;;;1.75;1.50;;;;;13.50;57.83;102466.91;5113701;28;8828;-63
2022/03/18 09:24:56;;;;;;;;;6.25;4.00;;;;;13.49;57.38;102467.84;5114465;28;9189;-63
2022/03/18 09:27:24;;;;;;;;;5.00;4.00;;;;;13.36;57.72;102474.81;5114603;28;8831;-64
2022/03/18 09:29:52;;;;;;;;;4.00;3.00;;;;;13.18;57.93;102483.75;5114321;28;8878;-63
2022/03/18 09:32:19;;;;;;;;;1.50;1.00;;;;;12.97;58.11;102487.47;5114014;28;8878;-63
2022/03/18 09:34:47;;;;;;;;;4.00;4.00;;;;;12.81;58.19;102489.13;5113105;28;8827;-63
2022/03/18 09:37:15;;;;;;;;;3.00;3.00;;;;;12.66;58.31;102496.09;5113545;28;8831;-63
2022/03/18 09:39:42;;;;;;;;;4.00;4.00;;;;;12.51;58.79;102499.47;5113201;28;9233;-63
2022/03/18 09:42:10;;;;;;;;;6.00;5.50;;;;;12.36;58.47;102504.66;5114208;28;8827;-63
2022/03/18 09:44:38;;;;;;;;;4.00;4.00;;;;;12.29;58.85;102517.44;5113449;28;8848;-63
2022/03/18 09:47:06;;;;;;;;;5.00;3.00;;;;;12.28;58.92;102507.69;5113772;28;8847;-63
2022/03/18 09:49:33;;;;;;;;;3.50;2.50;;;;;12.28;58.97;102514.81;5113988;28;8924;-63
2022/03/18 09:52:01;;;;;;;;;3.00;3.00;;;;;12.29;58.14;102514.75;5112955;28;8913;-62
2022/03/18 09:54:29;;;;;;;;;0.00;0.00;;;;;12.29;58.51;102516.56;5111879;28;8872;-63
2022/03/18 09:56:57;;;;;;;;;5.00;5.00;;;;;12.39;57.91;102515.22;5112257;28;9497;-62
2022/03/18 09:59:24;;;;;;;;;3.00;3.00;;;;;12.62;56.90;102523.88;5112045;28;8848;-62
2022/03/18 10:01:52;;;;;;;;;3.75;1.00;;;;;13.07;55.92;102512.84;5112589;28;8819;-62
2022/03/18 10:04:20;;;;;;;;;1.00;1.00;;;;;13.74;54.21;102524.59;5112464;28;8912;-63
2022/03/18 10:06:48;;;;;;;;;1.00;1.00;;;;;14.59;53.11;102517.28;5113619;28;9223;-62
2022/03/18 10:09:16;;;;;;;;;3.00;1.00;;;;;15.47;51.46;102510.44;5112533;28;8832;-63
2022/03/18 10:11:44;;;;;;;;;0.00;0.00;;;;;16.31;50.51;102509.63;5112612;28;8912;-63
2022/03/18 10:14:11;;;;;;;;;3.00;2.00;;;;;17.23;49.08;102509.88;5112156;28;8836;-63
2022/03/18 10:16:39;;;;;;;;;2.50;2.50;;;;;17.90;47.13;102508.94;5111589;28;8844;-62
2022/03/18 10:19:07;;;;;;;;;3.00;3.00;;;;;18.47;46.37;102507.53;5111657;28;8831;-63
2022/03/18 10:21:35;;;;;;;;;6.00;3.50;;;;;19.09;46.21;102504.69;5111952;28;8886;-63
2022/03/18 10:24:03;;;;;;;;;0.00;0.00;;;;;19.66;45.08;102504.88;5111822;28;8844;-63
2022/03/18 10:26:31;;;;;;;;;1.40;1.20;;;;;20.19;44.39;102505.16;5111407;28;8847;-63
2022/03/18 10:29:01;;;;;;;;;6.00;5.20;;;;;20.72;43.37;102492.75;5110591;28;8832;-64
2022/03/18 10:31:29;;;;;;;;;3.20;3.20;;;;;21.02;42.33;102504.69;5111215;28;8827;-63
2022/03/18 10:39:28;;;;;;;;;4.00;4.00;;;;;22.28;41.48;102507.31;5098542;28;8871;-62
2022/03/18 10:41:57;;;;;;;;;3.60;3.60;;;;;22.57;41.07;102509.22;5109993;28;8924;-63
2022/03/18 10:44:26;;;;;;;;;4.00;4.00;;;;;22.88;40.99;102508.19;5110921;28;8928;-64
2022/03/18 10:46:57;;;;;;;;;2.00;2.00;;;;;23.20;40.07;102502.53;5111892;28;8947;-63
2022/03/18 10:49:25;;;;;;;;;1.00;1.00;;;;;23.32;40.39;102505.03;5111675;28;8855;-62
2022/03/18 10:51:52;;;;;;;;;2.40;2.40;;;;;23.43;40.19;102501.31;5111833;28;8839;-63
2022/03/18 10:54:20;;;;;;;;;2.40;2.40;;;;;23.62;38.92;102499.44;5111822;28;9536;-63
2022/03/18 10:56:47;;;;;;;;;2.00;2.00;;;;;23.66;38.56;102505.47;5112620;28;8847;-62
2022/03/18 10:59:17;;;;;;;;;2.00;2.00;;;;;23.50;38.42;102506.03;5112589;28;8843;-62
2022/03/18 11:01:45;;;;;;;;;4.00;2.00;;;;;23.29;38.77;102501.72;5109377;28;8835;-63
2022/03/18 11:04:13;;;;;;;;;4.00;4.00;;;;;23.25;38.68;102500.28;5110681;28;8850;-62
2022/03/18 11:06:41;;;;;;;;;2.00;2.00;;;;;23.42;38.45;102510.44;5111608;28;8843;-63
2022/03/18 11:09:09;;;;;;;;;4.00;4.00;;;;;23.72;38.03;102507.59;5111416;28;8832;-63
2022/03/18 11:11:35;;;;;;;;;4.00;4.00;;;;;23.97;38.30;102507.88;5109434;28;8832;-63
2022/03/18 11:14:04;;;;;;;;;5.40;3.60;;;;;24.17;37.67;102505.97;5106052;28;8878;-63
2022/03/18 11:16:33;;;;;;;;;2.00;2.00;;;;;24.32;37.21;102512.69;5112481;28;8853;-63
2022/03/18 11:19:05;;;;;;;;;1.00;1.00;;;;;24.23;36.92;102509.00;5107604;28;9537;-62
2022/03/18 11:21:38;;;;;;;;;2.00;2.00;;;;;24.29;36.82;102510.25;5110147;28;8861;-63
2022/03/18 11:24:06;;;;;;;;;2.80;2.80;;;;;24.51;36.03;102507.19;5110314;28;8828;-63
2022/03/18 11:26:34;;;;;;;;;1.00;1.00;;;;;24.81;36.43;102496.03;5109938;28;8872;-63
2022/03/18 11:29:02;;;;;;;;;3.60;3.60;;;;;25.12;35.78;102505.59;5111537;28;8839;-63
2022/03/18 11:31:31;;;;;;;;;5.00;4.20;;;;;25.31;35.70;102505.50;5110239;28;8836;-63
2022/03/18 11:33:58;;;;;;;;;2.00;2.00;;;;;25.34;35.17;102507.94;5110433;28;8824;-63
2022/03/18 11:36:26;;;;;;;;;4.00;4.00;;;;;25.34;35.70;102516.13;5110989;28;8858;-63
2022/03/18 11:38:55;;;;;;;;;4.40;4.40;;;;;25.44;35.23;102511.44;5109915;28;8859;-63
2022/03/18 11:41:22;;;;;;;;;4.00;2.40;;;;;25.59;34.95;102506.13;5110529;28;8979;-63
2022/03/18 11:43:50;;;;;;;;;4.00;4.00;;;;;25.60;34.54;102505.13;5109738;28;8840;-63
2022/03/18 11:46:20;;;;;;;;;4.20;4.20;;;;;25.64;34.21;102508.38;5110938;28;8843;-64
2022/03/18 11:48:49;;;;;;;;;5.20;5.00;;;;;25.73;34.24;102507.47;5109860;28;8832;-63
2022/03/18 11:51:16;;;;;;;;;1.00;1.00;;;;;25.99;33.48;102508.38;5110102;28;8824;-62
2022/03/18 11:53:45;;;;;;;;;4.00;4.00;;;;;26.12;32.89;102506.94;5110411;28;9531;-63
2022/03/18 11:56:13;;;;;;;;;3.80;3.60;;;;;26.01;32.84;102509.94;5110140;28;8863;-62
2022/03/18 11:58:40;;;;;;;;;4.80;4.40;;;;;25.96;32.74;102506.00;5111095;28;8855;-63